Terminal Aerodrome Forecast
Issued by NWS

Current Version | Previous Version | Text Only | Print | Product List | Glossary On
Versions: 1 2 3 4 5 6 7 8 9 10 11 12 13 14 15 16 17 18 19 20 21 22 23
000
FTUS43 KDLH 011100
TAFHYR
TAF
KHYR 011128Z 0112/0212 05010G17KT P6SM SCT030 OVC130
      TEMPO 0113/0115 BKN030
     FM011500 04008KT P6SM BKN030 BKN130
     FM020100 VRB03KT P6SM SCT030 BKN130=

USA.gov is the U.S. government's official web portal to all federal, state and local government web resources and services.